Stations météo

réclame
Mon MeteoGroup
Great Dun Fell, Grande-Bretagne (3227): Température de l'air & dewpoint: 11.09.2019 20:00:00 - 17.09.2019 20:00:00 (BST)Great Dun Fell, Grande-Bretagne (3227): Vitesse du vent & gusts: 11.09.2019 20:00:00 - 17.09.2019 20:00:00 (BST)Great Dun Fell, Grande-Bretagne (3227): Direction du vent: 11.09.2019 20:00:00 - 17.09.2019 20:00:00 (BST)
Date & Time tt [°C] td [°C] ff [km/h] ff [knt] fx [km/h] fx [knt] dd
17.09.2019 20:00:00 6,8 2,7 11 6 - - NW
17.09.2019 19:00:00 7,2 0,1 11 6 - - NNW
17.09.2019 18:00:00 8,1 -2,0 11 6 - - NNW
17.09.2019 17:00:00 8,0 -2,3 13 7 - - NNW
17.09.2019 16:00:00 8,3 0,2 15 8 - - WNW
17.09.2019 15:00:00 7,4 -0,9 15 8 - - N
17.09.2019 14:00:00 7,5 0,2 16 9 - - NW
17.09.2019 13:00:00 6,7 -0,5 18 10 - - NNW
17.09.2019 12:00:00 6,1 0,5 22 12 - - NW
17.09.2019 11:00:00 5,6 3,5 28 15 - - WNW
17.09.2019 10:00:00 4,9 1,9 35 19 50 27 NNW
17.09.2019 09:00:00 4,3 1,4 41 22 57 31 NNW
17.09.2019 08:00:00 3,3 2,3 48 26 57 31 NNW
17.09.2019 07:00:00 3,8 3,8 46 25 61 33 NW
17.09.2019 06:00:00 4,5 4,5 37 20 54 29 WNW
17.09.2019 05:00:00 4,4 4,4 39 21 50 27 WNW
17.09.2019 04:00:00 4,4 4,4 44 24 52 28 WNW
17.09.2019 03:00:00 4,4 4,4 41 22 54 29 WNW
17.09.2019 02:00:00 4,8 4,8 42 23 55 30 WNW
17.09.2019 01:00:00 4,7 4,7 42 23 63 34 WNW
17.09.2019 00:00:00 4,8 4,8 50 27 63 34 WNW
16.09.2019 23:00:00 4,8 4,8 46 25 55 30 WNW
16.09.2019 22:00:00 5,3 5,3 44 24 54 29 WNW
16.09.2019 21:00:00 5,5 5,0 41 22 50 27 WNW
16.09.2019 20:00:00 5,8 5,6 44 24 54 29 WNW
16.09.2019 19:00:00 6,4 4,8 44 24 52 28 WNW
16.09.2019 18:00:00 6,8 6,1 41 22 59 32 W
16.09.2019 17:00:00 7,1 5,2 42 23 54 29 W
16.09.2019 16:00:00 7,0 3,7 41 22 54 29 W
16.09.2019 15:00:00 6,7 4,0 42 23 55 30 W
16.09.2019 14:00:00 6,6 4,0 37 20 50 27 W
16.09.2019 13:00:00 6,5 4,2 34 18 - - W
16.09.2019 12:00:00 5,8 2,0 24 13 - - W
16.09.2019 11:00:00 5,4 1,6 13 7 - - WNW
16.09.2019 10:00:00 5,6 1,5 18 10 - - NW
16.09.2019 09:00:00 4,6 2,0 16 9 - - NNW
16.09.2019 08:00:00 4,2 2,7 21 11 - - N
16.09.2019 07:00:00 4,2 2,9 29 16 - - NNW
16.09.2019 06:00:00 4,4 4,3 24 13 - - NW
16.09.2019 05:00:00 4,8 4,8 24 13 - - NW
16.09.2019 04:00:00 4,9 4,7 22 12 - - NW
16.09.2019 03:00:00 4,8 4,3 18 10 - - N
16.09.2019 02:00:00 5,1 4,2 22 12 - - N
16.09.2019 01:00:00 5,1 4,7 16 9 - - N
16.09.2019 00:00:00 4,9 4,9 26 14 - - NNW
15.09.2019 23:00:00 5,2 5,2 21 11 - - NNW
15.09.2019 22:00:00 6,0 6,0 18 10 - - WNW
15.09.2019 21:00:00 5,8 5,8 21 11 - - WNW
15.09.2019 20:00:00 6,0 6,0 28 15 - - W
15.09.2019 19:00:00 6,2 6,2 28 15 - - WNW
15.09.2019 18:00:00 6,3 6,3 28 15 - - W
15.09.2019 17:00:00 6,2 6,2 35 19 - - W
15.09.2019 16:00:00 6,7 6,5 31 17 - - W
15.09.2019 15:00:00 6,2 6,2 35 19 - - W
15.09.2019 14:00:00 6,5 6,1 28 15 - - W
15.09.2019 13:00:00 6,2 6,2 31 17 - - W
15.09.2019 12:00:00 5,6 5,6 39 21 54 29 W
15.09.2019 11:00:00 5,8 5,8 41 22 65 35 W
15.09.2019 10:00:00 6,4 6,4 52 28 68 37 W
15.09.2019 09:00:00 6,7 6,7 52 28 68 37 W
15.09.2019 08:00:00 7,0 7,0 55 30 68 37 W
15.09.2019 07:00:00 7,0 7,0 42 23 63 34 W
15.09.2019 06:00:00 7,0 7,0 54 29 78 42 W
15.09.2019 05:00:00 8,2 8,2 65 35 81 44 W
15.09.2019 04:00:00 9,6 9,6 67 36 81 44 W
15.09.2019 03:00:00 10,3 10,3 67 36 78 42 W
15.09.2019 02:00:00 10,0 10,0 67 36 81 44 WSW
15.09.2019 01:00:00 9,7 9,7 76 41 91 49 WSW
15.09.2019 00:00:00 9,5 9,5 74 40 85 46 WSW
14.09.2019 23:00:00 8,6 8,6 52 28 72 39 SW
14.09.2019 22:00:00 8,5 8,5 67 36 76 41 SW
14.09.2019 21:00:00 8,1 8,1 52 28 67 36 SW
14.09.2019 20:00:00 8,3 8,3 59 32 74 40 SW
14.09.2019 19:00:00 8,5 7,5 63 34 72 39 SW
14.09.2019 18:00:00 8,8 6,3 59 32 72 39 SW
14.09.2019 17:00:00 9,0 5,1 55 30 72 39 SW
14.09.2019 16:00:00 9,2 6,9 65 35 78 42 SW
14.09.2019 15:00:00 9,5 7,5 55 30 72 39 SW
14.09.2019 14:00:00 9,1 6,0 63 34 78 42 SW
14.09.2019 13:00:00 7,8 6,9 54 29 65 35 SW
14.09.2019 12:00:00 6,8 6,3 55 30 67 36 SW
14.09.2019 11:00:00 6,2 5,6 50 27 65 35 SW
14.09.2019 10:00:00 5,5 5,5 57 31 68 37 SW
14.09.2019 09:00:00 4,6 4,6 55 30 65 35 SW
14.09.2019 08:00:00 5,0 5,0 52 28 59 32 SW
14.09.2019 07:00:00 5,5 5,5 37 20 - - SW
14.09.2019 06:00:00 5,1 5,1 31 17 - - SW
14.09.2019 05:00:00 5,8 3,3 28 15 - - SW
14.09.2019 04:00:00 6,3 4,1 21 11 - - SW
14.09.2019 03:00:00 6,8 3,9 18 10 - - SW
14.09.2019 02:00:00 6,9 3,8 11 6 - - WSW
14.09.2019 01:00:00 7,3 3,1 9 5 - - W
14.09.2019 00:00:00 6,2 6,2 13 7 - - W
13.09.2019 23:00:00 6,0 5,9 15 8 - - W
13.09.2019 22:00:00 6,2 6,0 15 8 - - W
13.09.2019 21:00:00 6,5 6,0 15 8 - - W
13.09.2019 20:00:00 6,6 5,9 21 11 - - W
13.09.2019 19:00:00 7,5 5,6 29 16 - - W
13.09.2019 18:00:00 7,8 5,2 24 13 - - W
13.09.2019 17:00:00 8,0 4,2 28 15 - - W
13.09.2019 16:00:00 8,1 3,5 37 20 48 26 W
13.09.2019 15:00:00 7,7 4,6 41 22 52 28 W
13.09.2019 14:00:00 6,9 6,5 39 21 52 28 W
13.09.2019 13:00:00 5,8 5,2 37 20 48 26 W
13.09.2019 12:00:00 5,7 5,7 34 18 - - W
13.09.2019 11:00:00 5,4 5,4 22 12 - - W
13.09.2019 10:00:00 5,6 5,6 35 19 48 26 W
13.09.2019 09:00:00 5,3 5,3 39 21 46 25 W
13.09.2019 08:00:00 5,3 5,3 34 18 - - WNW
13.09.2019 07:00:00 5,0 5,0 34 18 - - WNW
13.09.2019 06:00:00 4,7 4,7 22 12 - - W
13.09.2019 05:00:00 4,7 4,7 22 12 - - W
13.09.2019 04:00:00 4,9 4,9 31 17 - - WNW
13.09.2019 03:00:00 4,5 4,5 35 19 46 25 WNW
13.09.2019 02:00:00 4,9 4,9 37 20 48 26 WNW
13.09.2019 01:00:00 5,2 5,2 39 21 52 28 WNW
13.09.2019 00:00:00 5,5 5,5 39 21 57 31 WNW
12.09.2019 23:00:00 5,6 5,6 35 19 54 29 NW
12.09.2019 22:00:00 6,0 6,0 39 21 55 30 WNW
12.09.2019 21:00:00 6,6 6,6 42 23 57 31 WNW
12.09.2019 20:00:00 8,4 8,4 41 22 57 31 NW
12.09.2019 19:00:00 9,6 9,6 46 25 65 35 NW
12.09.2019 18:00:00 9,9 9,9 50 27 67 36 NW
12.09.2019 17:00:00 12,1 12,1 57 31 76 41 W
12.09.2019 16:00:00 12,2 12,2 63 34 80 43 WSW
12.09.2019 15:00:00 12,1 12,1 59 32 74 40 WSW
12.09.2019 14:00:00 12,1 12,1 67 36 87 47 WSW
12.09.2019 13:00:00 11,5 11,5 72 39 89 48 SW
12.09.2019 12:00:00 10,7 10,7 68 37 83 45 SW
12.09.2019 11:00:00 9,7 9,7 59 32 68 37 SW
12.09.2019 10:00:00 8,9 8,9 55 30 68 37 SW
12.09.2019 09:00:00 8,3 8,3 52 28 59 32 SW
12.09.2019 08:00:00 8,3 8,3 48 26 59 32 SW
12.09.2019 07:00:00 8,2 8,2 50 27 55 30 SW
12.09.2019 06:00:00 8,0 8,0 44 24 48 26 WSW
12.09.2019 05:00:00 7,8 7,8 41 22 54 29 WSW
12.09.2019 04:00:00 7,5 7,5 52 28 59 32 WSW
12.09.2019 03:00:00 7,3 7,3 55 30 63 34 W
12.09.2019 02:00:00 7,6 7,6 54 29 59 32 W
12.09.2019 01:00:00 7,9 7,9 48 26 55 30 W
12.09.2019 00:00:00 7,6 7,6 44 24 57 31 W
11.09.2019 23:00:00 7,7 7,7 52 28 61 33 WSW
11.09.2019 22:00:00 7,6 7,6 57 31 76 41 W
11.09.2019 21:00:00 7,9 7,9 61 33 68 37 WSW
11.09.2019 20:00:00 8,1 8,1 52 28 74 40 W

tt = Température de l'air
td = dewpoint
ff = Vitesse du vent
fx = gusts
dd = Direction du vent

stations d'obs. à proximité